createdAt,value
2022-10-09T00:01:32.726Z,10.02
2022-10-09T00:04:03.738Z,9.40
2022-10-09T00:06:54.452Z,9.60
2022-10-09T00:09:25.558Z,10.18
2022-10-09T00:11:56.784Z,9.48
2022-10-09T00:14:29.102Z,9.00
2022-10-09T00:17:00.440Z,9.88
2022-10-09T00:19:32.870Z,10.07
2022-10-09T00:22:03.927Z,9.48
2022-10-09T00:24:55.719Z,9.20
2022-10-09T00:27:46.695Z,9.82
2022-10-09T00:30:17.684Z,9.77
2022-10-09T00:32:49.091Z,10.05
2022-10-09T00:35:40.397Z,9.73
2022-10-09T00:38:11.832Z,9.77
2022-10-09T00:41:02.951Z,9.68
2022-10-09T00:44:33.950Z,9.93
2022-10-09T00:47:05.140Z,9.48
2022-10-09T00:49:37.257Z,10.43
2022-10-09T00:52:09.475Z,10.18
2022-10-09T00:54:42.875Z,9.38
2022-10-09T00:57:14.406Z,10.80
2022-10-09T00:59:45.577Z,9.68
2022-10-09T01:02:16.784Z,10.13
2022-10-09T01:04:47.752Z,9.90
2022-10-09T01:07:21.778Z,10.38
2022-10-09T01:10:01.341Z,9.93
2022-10-09T01:12:57.036Z,10.05
2022-10-09T01:15:36.229Z,9.95
2022-10-09T01:18:30.865Z,10.30
2022-10-09T01:21:11.350Z,10.90
2022-10-09T01:24:04.904Z,10.80
2022-10-09T01:27:06.795Z,10.70
2022-10-09T01:29:47.117Z,10.70
2022-10-09T01:32:24.270Z,11.10
2022-10-09T01:34:56.166Z,11.07
2022-10-09T01:37:29.154Z,12.23
2022-10-09T01:40:21.883Z,11.70
2022-10-09T01:42:52.934Z,10.80
2022-10-09T01:45:23.931Z,11.70
2022-10-09T01:47:54.849Z,11.85
2022-10-09T01:50:34.641Z,11.60
2022-10-09T01:53:26.255Z,11.23
2022-10-09T01:56:11.375Z,11.65
2022-10-09T01:58:49.491Z,11.63
2022-10-09T02:01:31.528Z,11.73
2022-10-09T02:04:05.499Z,11.55
2022-10-09T02:06:41.056Z,11.77
2022-10-09T02:09:15.770Z,12.15
2022-10-09T02:11:51.387Z,11.38
2022-10-09T02:14:22.809Z,11.98
2022-10-09T02:17:06.729Z,12.75
2022-10-09T02:19:45.303Z,11.60
2022-10-09T02:22:37.975Z,12.25
2022-10-09T02:25:09.684Z,11.68
2022-10-09T02:27:41.158Z,12.85
2022-10-09T02:30:14.634Z,11.70
2022-10-09T02:32:45.719Z,12.15
2022-10-09T02:35:16.802Z,11.80
2022-10-09T02:38:07.353Z,11.70
2022-10-09T02:40:39.207Z,11.88
2022-10-09T02:43:10.243Z,11.27
2022-10-09T02:45:41.290Z,11.82
2022-10-09T02:48:12.390Z,11.10
2022-10-09T02:50:43.523Z,11.10
2022-10-09T02:53:14.452Z,11.70
2022-10-09T02:55:45.399Z,12.20
2022-10-09T03:01:01.098Z,11.10
2022-10-09T03:03:32.523Z,11.70
2022-10-09T03:06:15.012Z,11.27
2022-10-09T03:09:33.412Z,10.95
2022-10-09T03:12:46.687Z,12.38
2022-10-09T03:28:00.119Z,11.43
2022-10-09T03:30:51.007Z,11.38
2022-10-09T03:43:18.649Z,11.90
2022-10-09T03:46:15.291Z,11.25
2022-10-09T04:06:37.243Z,12.65
2022-10-09T04:09:28.305Z,12.90
2022-10-09T04:12:40.088Z,11.55
2022-10-09T04:15:32.888Z,12.02
2022-10-09T04:18:35.415Z,11.60
2022-10-09T04:21:29.929Z,13.32
2022-10-09T04:26:33.750Z,18.27
2022-10-09T04:41:44.483Z,17.52
2022-10-09T04:44:35.809Z,17.55
2022-10-09T05:08:04.376Z,14.73
2022-10-09T05:11:05.533Z,16.17
2022-10-09T05:13:57.647Z,16.15
2022-10-09T05:16:40.774Z,15.05
2022-10-09T05:19:45.315Z,15.70
2022-10-09T05:25:59.290Z,15.13
2022-10-09T05:28:53.396Z,14.90
2022-10-09T05:31:30.387Z,14.27
2022-10-09T05:34:22.505Z,14.85
2022-10-09T05:37:11.671Z,14.50
2022-10-09T05:40:14.927Z,14.32
2022-10-09T05:43:07.079Z,14.10
2022-10-09T06:00:56.497Z,13.63
2022-10-09T06:03:27.799Z,13.75
2022-10-09T06:06:25.327Z,13.80
2022-10-09T06:09:18.110Z,13.73
2022-10-09T06:12:10.364Z,13.25
2022-10-09T06:22:06.744Z,13.70
2022-10-09T06:25:00.639Z,12.18
2022-10-09T06:27:31.699Z,11.85
2022-10-09T06:30:31.207Z,11.63
2022-10-09T06:48:03.370Z,11.67
2022-10-09T06:50:38.654Z,11.90
2022-10-09T06:53:32.388Z,12.15
2022-10-09T06:56:43.508Z,11.80
2022-10-09T06:59:55.939Z,11.15
2022-10-09T07:17:14.319Z,10.50
2022-10-09T07:19:45.631Z,11.25
2022-10-09T07:23:05.514Z,10.35
2022-10-09T07:25:56.720Z,10.02
2022-10-09T07:40:48.864Z,9.60
2022-10-09T07:43:20.154Z,10.00
2022-10-09T07:46:34.440Z,9.95
2022-10-09T07:59:18.202Z,9.77
2022-10-09T08:02:45.215Z,9.63
2022-10-09T08:05:16.470Z,9.93
2022-10-09T08:20:37.331Z,8.40
2022-10-09T08:23:48.310Z,8.98
2022-10-09T08:26:42.307Z,8.70
2022-10-09T08:41:45.296Z,8.60
2022-10-09T08:44:22.259Z,8.02
2022-10-09T08:47:45.687Z,8.20
2022-10-09T08:50:27.651Z,8.13
2022-10-09T08:53:04.725Z,7.68
2022-10-09T08:55:52.040Z,7.95
2022-10-09T08:58:45.121Z,7.47
2022-10-09T09:01:44.891Z,7.65
2022-10-09T09:04:40.252Z,7.53
2022-10-09T09:07:29.599Z,7.22
2022-10-09T09:11:13.080Z,7.05
2022-10-09T09:14:08.782Z,7.57
2022-10-09T09:16:42.871Z,8.07
2022-10-09T09:19:34.768Z,7.18
2022-10-09T09:22:26.158Z,7.03
2022-10-09T09:25:31.460Z,7.13
2022-10-09T09:35:31.048Z,6.53
2022-10-09T09:38:22.201Z,6.93
2022-10-09T09:41:14.432Z,7.13
2022-10-09T09:53:47.673Z,7.07
2022-10-09T09:57:11.195Z,6.28
2022-10-09T09:59:53.420Z,6.38
2022-10-09T10:02:50.876Z,6.72
2022-10-09T10:05:46.007Z,5.78
2022-10-09T10:08:34.968Z,6.28
2022-10-09T10:11:09.998Z,6.97
2022-10-09T10:14:02.367Z,9.95
2022-10-09T10:29:09.898Z,10.77
2022-10-09T10:31:46.888Z,9.68
2022-10-09T10:38:01.182Z,10.10
2022-10-09T10:41:07.182Z,10.13
2022-10-09T10:43:47.805Z,9.73
2022-10-09T10:46:51.040Z,9.20
2022-10-09T10:49:43.486Z,8.45
2022-10-09T10:52:59.512Z,9.35
2022-10-09T12:01:32.997Z,6.90
2022-10-09T12:04:50.087Z,7.13
2022-10-09T12:07:41.121Z,7.07
2022-10-09T12:10:36.081Z,7.30
2022-10-09T12:32:31.217Z,7.63
2022-10-09T12:35:24.976Z,6.43
2022-10-09T12:38:28.922Z,6.78
2022-10-09T12:41:05.005Z,6.43
2022-10-09T12:44:00.578Z,6.13
2022-10-09T12:46:50.830Z,6.28
2022-10-09T13:02:42.414Z,5.95
2022-10-09T13:05:40.532Z,6.35
2022-10-09T13:08:50.451Z,6.10
2022-10-09T13:11:46.108Z,5.38
2022-10-09T13:28:11.039Z,5.75
2022-10-09T13:34:25.259Z,5.10
2022-10-09T13:36:57.657Z,6.03
2022-10-09T13:39:29.192Z,6.28
2022-10-09T13:45:26.540Z,5.13
2022-10-09T13:58:14.194Z,5.80
2022-10-09T14:01:10.177Z,5.32
2022-10-09T14:04:01.594Z,5.18
2022-10-09T14:24:39.923Z,5.03
2022-10-09T14:27:31.175Z,4.70
2022-10-09T14:30:49.573Z,5.03
2022-10-09T14:45:39.568Z,4.97
2022-10-09T14:48:30.981Z,4.72
2022-10-09T14:51:36.993Z,4.28
2022-10-09T14:54:30.512Z,4.43
2022-10-09T14:57:22.805Z,4.35
2022-10-09T15:12:33.810Z,4.50
2022-10-09T15:15:05.151Z,4.05
2022-10-09T15:18:32.437Z,4.60
2022-10-09T15:34:18.385Z,4.03
2022-10-09T15:36:49.715Z,4.50
2022-10-09T15:39:20.945Z,4.35
2022-10-09T15:42:15.986Z,4.70
2022-10-09T15:44:47.900Z,3.70
2022-10-09T15:59:39.881Z,4.00
2022-10-09T16:02:13.044Z,4.07
2022-10-09T16:07:54.341Z,4.47
2022-10-09T16:14:10.300Z,3.78
2022-10-09T16:29:36.438Z,3.78
2022-10-09T16:32:32.419Z,3.45
2022-10-09T16:35:47.024Z,4.10
2022-10-09T16:55:29.820Z,3.95
2022-10-09T16:58:01.149Z,3.42
2022-10-09T17:01:09.419Z,3.42
2022-10-09T17:04:10.014Z,3.80
2022-10-09T17:07:06.956Z,3.72
2022-10-09T17:10:01.110Z,3.70
2022-10-09T17:13:11.559Z,3.78
2022-10-09T17:16:03.618Z,4.35
2022-10-09T17:19:15.859Z,3.63
2022-10-09T17:21:47.766Z,3.83
2022-10-09T17:27:47.514Z,3.53
2022-10-09T17:30:38.724Z,4.10
2022-10-09T17:33:44.112Z,3.72
2022-10-09T17:36:45.384Z,3.72
2022-10-09T17:39:51.153Z,3.90
2022-10-09T18:02:57.707Z,4.07
2022-10-09T18:05:54.386Z,3.75
2022-10-09T18:08:48.321Z,3.50
2022-10-09T18:11:20.358Z,3.67
2022-10-09T18:14:12.671Z,3.58
2022-10-09T18:17:05.368Z,3.38
2022-10-09T18:32:51.893Z,3.50
2022-10-09T18:36:13.072Z,3.63
2022-10-09T18:39:06.288Z,3.50
2022-10-09T18:41:38.138Z,3.25
2022-10-09T18:44:18.827Z,3.60
2022-10-09T18:57:40.361Z,3.33
2022-10-09T19:00:38.516Z,3.30
2022-10-09T19:03:09.706Z,3.67
2022-10-09T19:05:40.926Z,3.70
2022-10-09T19:08:40.473Z,3.83
2022-10-09T19:25:29.006Z,3.55
2022-10-09T19:28:20.080Z,3.80
2022-10-09T19:30:51.880Z,3.50
2022-10-09T19:56:44.503Z,3.60
2022-10-09T19:59:38.537Z,3.80
2022-10-09T20:02:09.970Z,4.30
2022-10-09T20:04:47.330Z,3.47
2022-10-09T20:22:42.955Z,3.67
2022-10-09T20:25:59.844Z,3.80
2022-10-09T20:28:56.132Z,3.20
2022-10-09T20:47:02.813Z,3.30
2022-10-09T20:49:33.895Z,3.30
2022-10-09T21:05:14.400Z,3.47
2022-10-09T21:07:45.657Z,3.40
2022-10-09T21:10:17.265Z,3.60
2022-10-09T21:13:08.209Z,3.42
2022-10-09T21:16:03.142Z,3.55
2022-10-09T21:18:34.362Z,3.20
2022-10-09T21:21:54.884Z,3.35
2022-10-09T21:33:43.704Z,3.42
2022-10-09T21:36:34.484Z,3.53
2022-10-09T21:39:29.051Z,3.40
2022-10-09T21:44:58.941Z,3.28
2022-10-09T22:02:56.813Z,3.22
2022-10-09T22:06:08.857Z,3.28
2022-10-09T22:21:37.825Z,3.25
2022-10-09T22:24:09.728Z,3.50
2022-10-09T22:27:21.396Z,3.35
2022-10-09T22:29:53.423Z,3.63
2022-10-09T22:49:51.585Z,4.82
2022-10-09T22:52:22.707Z,4.35
2022-10-09T22:55:16.404Z,4.70
2022-10-09T22:57:47.417Z,4.43
2022-10-09T23:01:05.375Z,4.30
2022-10-09T23:24:59.760Z,3.90
2022-10-09T23:40:15.681Z,3.50
2022-10-09T23:42:46.707Z,4.15
2022-10-09T23:46:12.850Z,3.50
2022-10-09T23:49:03.858Z,3.88
2022-10-09T23:51:58.539Z,3.63
